createdAt,value
2022-09-06T00:03:40.315Z,19.47
2022-09-06T00:08:45.346Z,19.50
2022-09-06T00:13:50.623Z,19.17
2022-09-06T00:18:55.724Z,19.27
2022-09-06T00:23:59.427Z,19.21
2022-09-06T00:29:04.520Z,19.16
2022-09-06T00:34:08.407Z,19.20
2022-09-06T00:39:12.176Z,19.26
2022-09-06T00:44:17.505Z,19.28
2022-09-06T00:49:25.796Z,19.30
2022-09-06T00:54:29.394Z,19.37
2022-09-06T00:59:37.258Z,19.31
2022-09-06T01:04:44.507Z,19.26
2022-09-06T01:10:03.975Z,19.15
2022-09-06T01:15:23.252Z,19.09
2022-09-06T01:20:50.184Z,19.06
2022-09-06T01:26:04.811Z,19.07
2022-09-06T01:31:27.831Z,18.98
2022-09-06T01:36:49.635Z,19.04
2022-09-06T01:42:07.129Z,18.95
2022-09-06T01:47:26.600Z,18.90
2022-09-06T01:52:35.510Z,18.94
2022-09-06T01:58:01.338Z,18.86
2022-09-06T02:03:13.424Z,18.90
2022-09-06T02:08:23.689Z,18.90
2022-09-06T02:13:31.320Z,18.84
2022-09-06T02:18:41.611Z,18.73
2022-09-06T02:23:47.928Z,18.63
2022-09-06T02:28:51.761Z,18.48
2022-09-06T02:33:57.676Z,18.53
2022-09-06T02:39:01.915Z,18.52
2022-09-06T02:44:05.660Z,18.47
2022-09-06T02:49:10.720Z,18.42
2022-09-06T02:54:14.679Z,18.39
2022-09-06T02:59:18.342Z,18.35
2022-09-06T03:04:23.391Z,18.35
2022-09-06T03:09:27.165Z,18.32
2022-09-06T03:14:30.896Z,18.30
2022-09-06T03:19:35.889Z,18.25
2022-09-06T03:24:39.615Z,18.26
2022-09-06T03:29:43.278Z,18.25
2022-09-06T03:34:48.342Z,18.20
2022-09-06T03:39:52.225Z,18.15
2022-09-06T03:44:55.983Z,18.10
2022-09-06T03:50:01.006Z,18.03
2022-09-06T03:55:05.427Z,17.99
2022-09-06T04:00:10.449Z,17.94
2022-09-06T04:05:16.570Z,17.85
2022-09-06T04:10:20.465Z,17.88
2022-09-06T04:15:24.214Z,17.88
2022-09-06T04:20:29.326Z,17.89
2022-09-06T04:25:33.144Z,17.79
2022-09-06T04:30:36.864Z,17.80
2022-09-06T04:35:41.910Z,17.76
2022-09-06T04:40:45.626Z,17.71
2022-09-06T04:45:49.598Z,17.67
2022-09-06T04:50:54.735Z,17.58
2022-09-06T04:55:59.368Z,17.55
2022-09-06T05:01:03.132Z,17.54
2022-09-06T05:06:11.018Z,17.49
2022-09-06T05:11:14.866Z,17.48
2022-09-06T05:16:19.022Z,17.41
2022-09-06T05:21:24.106Z,17.26
2022-09-06T05:26:27.839Z,17.15
2022-09-06T05:31:33.659Z,17.14
2022-09-06T05:36:38.835Z,17.19
2022-09-06T05:41:42.580Z,17.22
2022-09-06T05:46:46.996Z,17.22
2022-09-06T05:51:53.165Z,17.25
2022-09-06T05:56:57.024Z,17.29
2022-09-06T06:02:03.313Z,17.39
2022-09-06T06:07:11.779Z,17.51
2022-09-06T06:12:15.493Z,17.63
2022-09-06T06:17:19.202Z,17.73
2022-09-06T06:22:24.275Z,17.84
2022-09-06T06:27:28.030Z,17.95
2022-09-06T06:32:31.738Z,18.03
2022-09-06T06:37:37.030Z,18.10
2022-09-06T06:42:40.912Z,18.18
2022-09-06T06:47:44.615Z,18.26
2022-09-06T06:52:49.671Z,18.33
2022-09-06T06:57:53.745Z,18.39
2022-09-06T07:02:57.495Z,18.46
2022-09-06T07:08:02.647Z,18.58
2022-09-06T07:13:06.464Z,18.64
2022-09-06T07:18:10.206Z,18.70
2022-09-06T07:28:39.042Z,18.92
2022-09-06T07:33:42.808Z,19.07
2022-09-06T07:38:51.431Z,19.24
2022-09-06T07:43:55.709Z,19.41
2022-09-06T07:48:59.605Z,19.61
2022-09-06T07:54:29.238Z,19.78
2022-09-06T07:59:28.673Z,19.98
2022-09-06T08:04:32.661Z,20.16
2022-09-06T08:09:38.082Z,20.31
2022-09-06T08:14:41.939Z,20.46
2022-09-06T08:19:45.680Z,20.65
2022-09-06T08:24:50.723Z,20.82
2022-09-06T08:29:54.438Z,21.03
2022-09-06T08:34:58.403Z,21.26
2022-09-06T08:40:03.875Z,21.53
2022-09-06T08:45:12.521Z,21.71
2022-09-06T08:50:16.547Z,21.84
2022-09-06T08:55:31.764Z,22.02
2022-09-06T09:00:37.077Z,22.20
2022-09-06T09:05:42.359Z,22.44
2022-09-06T09:10:50.130Z,22.61
2022-09-06T09:15:54.380Z,22.75
2022-09-06T09:20:59.694Z,22.97
2022-09-06T09:26:08.175Z,23.04
2022-09-06T09:31:14.256Z,23.20
2022-09-06T09:36:22.615Z,23.37
2022-09-06T09:41:30.742Z,23.62
2022-09-06T09:46:36.235Z,23.75
2022-09-06T09:51:41.713Z,23.83
2022-09-06T09:56:50.383Z,23.96
2022-09-06T10:01:57.046Z,24.17
2022-09-06T10:07:15.460Z,24.38
2022-09-06T10:12:30.112Z,24.64
2022-09-06T10:17:36.124Z,24.90
2022-09-06T10:22:52.607Z,25.33
2022-09-06T10:28:24.823Z,25.85
2022-09-06T10:33:39.351Z,26.55
2022-09-06T10:38:53.612Z,27.55
2022-09-06T10:44:08.763Z,27.81
2022-09-06T10:49:16.973Z,28.04
2022-09-06T10:54:23.846Z,29.35
2022-09-06T11:10:10.493Z,31.50
2022-09-06T11:15:17.672Z,31.96
2022-09-06T11:20:31.265Z,31.86
2022-09-06T11:26:11.761Z,32.42
2022-09-06T11:36:49.687Z,33.29
2022-09-06T11:41:53.388Z,33.51
2022-09-06T11:47:02.364Z,33.24
2022-09-06T11:52:52.129Z,32.77
2022-09-06T11:57:59.223Z,32.39
2022-09-06T12:08:37.741Z,31.52
2022-09-06T12:14:03.090Z,31.29
2022-09-06T12:19:08.362Z,31.01
2022-09-06T12:24:45.591Z,30.89
2022-09-06T12:29:54.606Z,30.85
2022-09-06T12:40:26.259Z,30.66
2022-09-06T12:45:30.130Z,30.67
2022-09-06T12:50:35.351Z,30.63
2022-09-06T12:55:39.663Z,30.54
2022-09-06T13:00:46.581Z,30.58
2022-09-06T13:05:53.783Z,30.72
2022-09-06T13:10:58.203Z,30.67
2022-09-06T13:16:02.003Z,30.66
2022-09-06T13:21:12.046Z,30.81
2022-09-06T13:26:16.101Z,30.77
2022-09-06T13:31:22.635Z,30.87
2022-09-06T13:36:30.692Z,30.92
2022-09-06T13:41:44.458Z,30.80
2022-09-06T13:46:53.360Z,30.83
2022-09-06T13:52:01.999Z,30.81
2022-09-06T13:57:06.007Z,30.85
2022-09-06T14:02:12.051Z,30.85
2022-09-06T14:07:17.291Z,30.81
2022-09-06T14:12:21.216Z,30.63
2022-09-06T14:17:24.904Z,30.63
2022-09-06T14:22:30.016Z,30.52
2022-09-06T14:27:35.261Z,30.58
2022-09-06T14:32:38.994Z,30.33
2022-09-06T14:37:44.007Z,30.18
2022-09-06T14:42:50.547Z,30.12
2022-09-06T14:47:54.438Z,30.21
2022-09-06T14:52:59.718Z,30.20
2022-09-06T14:58:03.558Z,30.28
2022-09-06T15:03:07.342Z,30.21
2022-09-06T15:08:12.447Z,30.15
2022-09-06T15:13:16.983Z,29.97
2022-09-06T15:18:21.450Z,29.72
2022-09-06T15:23:28.165Z,29.60
2022-09-06T15:28:31.860Z,29.64
2022-09-06T15:33:37.300Z,29.64
2022-09-06T15:38:44.399Z,29.56
2022-09-06T15:43:50.635Z,29.43
2022-09-06T15:48:54.380Z,29.24
2022-09-06T15:53:59.938Z,29.01
2022-09-06T15:59:03.864Z,28.75
2022-09-06T16:04:08.639Z,28.54
2022-09-06T16:09:15.467Z,28.24
2022-09-06T16:14:19.483Z,27.89
2022-09-06T16:19:23.243Z,27.71
2022-09-06T16:24:28.389Z,27.68
2022-09-06T16:29:32.086Z,27.48
2022-09-06T16:34:37.846Z,27.32
2022-09-06T16:39:43.194Z,27.17
2022-09-06T16:44:47.131Z,27.12
2022-09-06T16:49:50.860Z,27.03
2022-09-06T16:54:55.963Z,26.96
2022-09-06T16:59:59.732Z,26.90
2022-09-06T17:05:03.973Z,26.78
2022-09-06T17:10:09.845Z,26.70
2022-09-06T17:15:13.900Z,26.57
2022-09-06T17:20:20.555Z,26.49
2022-09-06T17:25:25.773Z,26.39
2022-09-06T17:30:29.889Z,26.28
2022-09-06T17:35:34.241Z,26.26
2022-09-06T17:40:39.736Z,26.05
2022-09-06T17:45:43.898Z,25.78
2022-09-06T17:50:47.687Z,25.65
2022-09-06T17:55:52.788Z,25.53
2022-09-06T18:00:56.709Z,25.34
2022-09-06T18:06:04.927Z,25.27
2022-09-06T18:11:11.612Z,25.19
2022-09-06T18:16:15.849Z,25.02
2022-09-06T18:21:19.707Z,24.87
2022-09-06T18:26:25.228Z,24.81
2022-09-06T18:31:29.184Z,24.69
2022-09-06T18:36:32.969Z,24.55
2022-09-06T18:41:55.690Z,24.47
2022-09-06T18:47:01.194Z,24.36
2022-09-06T18:52:06.713Z,24.39
2022-09-06T18:57:12.031Z,24.34
2022-09-06T19:02:16.027Z,24.24
2022-09-06T19:07:19.907Z,24.22
2022-09-06T19:12:25.060Z,24.19
2022-09-06T19:17:28.792Z,24.13
2022-09-06T19:22:33.225Z,24.06
2022-09-06T19:27:38.818Z,24.00
2022-09-06T19:32:42.567Z,23.91
2022-09-06T19:37:46.433Z,23.85
2022-09-06T19:42:52.173Z,23.87
2022-09-06T19:47:55.998Z,23.87
2022-09-06T19:53:01.467Z,23.87
2022-09-06T19:58:09.452Z,23.83
2022-09-06T20:03:13.228Z,23.75
2022-09-06T20:08:17.028Z,23.64
2022-09-06T20:13:22.225Z,23.57
2022-09-06T20:18:26.355Z,23.49
2022-09-06T20:23:31.976Z,23.45
2022-09-06T20:28:37.911Z,23.42
2022-09-06T20:33:44.679Z,23.40
2022-09-06T20:38:51.480Z,23.36
2022-09-06T20:43:58.365Z,23.31
2022-09-06T20:49:04.720Z,23.31
2022-09-06T20:54:08.622Z,23.24
2022-09-06T20:59:14.869Z,23.24
2022-09-06T21:04:18.864Z,23.25
2022-09-06T21:09:22.571Z,23.24
2022-09-06T21:14:27.622Z,23.23
2022-09-06T21:19:31.463Z,23.14
2022-09-06T21:24:35.230Z,23.07
2022-09-06T21:29:40.337Z,23.03
2022-09-06T21:34:44.066Z,23.07
2022-09-06T21:39:47.922Z,23.08
2022-09-06T21:44:53.454Z,22.98
2022-09-06T21:49:57.266Z,22.78
2022-09-06T21:55:00.908Z,22.48
2022-09-06T22:00:07.606Z,22.47
2022-09-06T22:05:11.095Z,22.35
2022-09-06T22:10:14.897Z,22.29
2022-09-06T22:15:21.604Z,22.14
2022-09-06T22:20:25.313Z,21.74
2022-09-06T22:25:28.984Z,21.23
2022-09-06T22:30:34.060Z,21.06
2022-09-06T22:35:37.793Z,20.84
2022-09-06T22:40:41.610Z,20.71
2022-09-06T22:45:51.331Z,20.67
2022-09-06T22:50:55.750Z,20.59
2022-09-06T22:56:00.122Z,20.52
2022-09-06T23:01:11.188Z,20.48
2022-09-06T23:06:15.042Z,20.38
2022-09-06T23:11:20.208Z,20.15
2022-09-06T23:16:28.281Z,19.98
2022-09-06T23:21:32.356Z,19.77
2022-09-06T23:26:36.636Z,19.61
2022-09-06T23:31:42.482Z,19.55
2022-09-06T23:36:46.329Z,19.40
2022-09-06T23:41:50.066Z,19.25
2022-09-06T23:46:55.216Z,19.13
2022-09-06T23:51:59.033Z,19.06
2022-09-06T23:57:02.765Z,19.05
